sensor_id;sensor_type;location;lat;lon;timestamp;P1;durP1;ratioP1;P2;durP2;ratioP2
13335;SDS011;6737;51.480;11.962;2022-12-18T00:00:02;47.00;;;26.80;;
13335;SDS011;6737;51.480;11.962;2022-12-18T00:02:29;48.43;;;26.50;;
13335;SDS011;6737;51.480;11.962;2022-12-18T00:04:54;47.63;;;26.33;;
13335;SDS011;6737;51.480;11.962;2022-12-18T00:07:20;48.53;;;26.63;;
13335;SDS011;6737;51.480;11.962;2022-12-18T00:09:46;47.03;;;27.63;;
13335;SDS011;6737;51.480;11.962;2022-12-18T00:12:11;47.87;;;28.03;;
13335;SDS011;6737;51.480;11.962;2022-12-18T00:14:37;50.40;;;28.07;;
13335;SDS011;6737;51.480;11.962;2022-12-18T00:17:03;49.53;;;28.00;;
13335;SDS011;6737;51.480;11.962;2022-12-18T00:19:29;50.63;;;27.00;;
13335;SDS011;6737;51.480;11.962;2022-12-18T00:21:55;46.23;;;26.93;;
13335;SDS011;6737;51.480;11.962;2022-12-18T00:24:20;51.50;;;27.23;;
13335;SDS011;6737;51.480;11.962;2022-12-18T00:26:46;49.27;;;26.97;;
13335;SDS011;6737;51.480;11.962;2022-12-18T00:29:13;49.07;;;27.60;;
13335;SDS011;6737;51.480;11.962;2022-12-18T00:31:40;50.50;;;27.33;;
13335;SDS011;6737;51.480;11.962;2022-12-18T00:34:08;44.73;;;27.63;;
13335;SDS011;6737;51.480;11.962;2022-12-18T00:36:37;48.00;;;27.67;;
13335;SDS011;6737;51.480;11.962;2022-12-18T00:39:04;48.53;;;27.73;;
13335;SDS011;6737;51.480;11.962;2022-12-18T00:41:30;49.67;;;27.90;;
13335;SDS011;6737;51.480;11.962;2022-12-18T00:44:16;47.60;;;27.37;;
13335;SDS011;6737;51.480;11.962;2022-12-18T00:46:43;46.07;;;25.77;;
13335;SDS011;6737;51.480;11.962;2022-12-18T00:49:09;48.77;;;27.23;;
13335;SDS011;6737;51.480;11.962;2022-12-18T00:51:37;47.10;;;25.90;;
13335;SDS011;6737;51.480;11.962;2022-12-18T00:54:03;47.27;;;27.00;;
13335;SDS011;6737;51.480;11.962;2022-12-18T00:56:30;46.40;;;26.43;;
13335;SDS011;6737;51.480;11.962;2022-12-18T00:58:56;41.40;;;23.33;;
13335;SDS011;6737;51.480;11.962;2022-12-18T01:01:21;38.00;;;21.33;;
13335;SDS011;6737;51.480;11.962;2022-12-18T01:03:47;39.50;;;21.87;;
13335;SDS011;6737;51.480;11.962;2022-12-18T01:06:14;38.93;;;22.50;;
13335;SDS011;6737;51.480;11.962;2022-12-18T01:08:40;38.63;;;22.23;;
13335;SDS011;6737;51.480;11.962;2022-12-18T01:11:10;40.33;;;22.27;;
13335;SDS011;6737;51.480;11.962;2022-12-18T01:13:38;40.07;;;22.80;;
13335;SDS011;6737;51.480;11.962;2022-12-18T01:16:05;40.73;;;22.63;;
13335;SDS011;6737;51.480;11.962;2022-12-18T01:18:31;34.83;;;21.03;;
13335;SDS011;6737;51.480;11.962;2022-12-18T01:20:57;38.73;;;22.77;;
13335;SDS011;6737;51.480;11.962;2022-12-18T01:23:23;35.87;;;21.37;;
13335;SDS011;6737;51.480;11.962;2022-12-18T01:25:48;41.43;;;22.83;;
13335;SDS011;6737;51.480;11.962;2022-12-18T01:28:14;41.47;;;23.57;;
13335;SDS011;6737;51.480;11.962;2022-12-18T01:30:40;41.40;;;22.30;;
13335;SDS011;6737;51.480;11.962;2022-12-18T01:33:06;41.27;;;22.43;;
13335;SDS011;6737;51.480;11.962;2022-12-18T01:35:31;42.20;;;22.53;;
13335;SDS011;6737;51.480;11.962;2022-12-18T01:37:57;40.83;;;22.37;;
13335;SDS011;6737;51.480;11.962;2022-12-18T01:40:23;42.83;;;21.23;;
13335;SDS011;6737;51.480;11.962;2022-12-18T01:42:52;39.20;;;22.47;;
13335;SDS011;6737;51.480;11.962;2022-12-18T01:50:24;38.47;;;22.07;;
13335;SDS011;6737;51.480;11.962;2022-12-18T01:55:28;48.30;;;23.83;;
13335;SDS011;6737;51.480;11.962;2022-12-18T01:57:58;57.97;;;28.50;;
13335;SDS011;6737;51.480;11.962;2022-12-18T02:00:26;56.50;;;26.83;;
13335;SDS011;6737;51.480;11.962;2022-12-18T02:02:53;59.13;;;26.70;;
13335;SDS011;6737;51.480;11.962;2022-12-18T02:05:22;50.40;;;25.10;;
13335;SDS011;6737;51.480;11.962;2022-12-18T02:08:14;54.63;;;26.13;;
13335;SDS011;6737;51.480;11.962;2022-12-18T02:11:12;51.27;;;25.67;;
13335;SDS011;6737;51.480;11.962;2022-12-18T02:19:14;50.13;;;25.43;;
13335;SDS011;6737;51.480;11.962;2022-12-18T02:27:24;51.97;;;25.93;;
13335;SDS011;6737;51.480;11.962;2022-12-18T02:29:52;50.77;;;25.13;;
13335;SDS011;6737;51.480;11.962;2022-12-18T02:32:22;53.93;;;26.23;;
13335;SDS011;6737;51.480;11.962;2022-12-18T02:34:52;48.17;;;23.90;;
13335;SDS011;6737;51.480;11.962;2022-12-18T02:37:21;51.23;;;25.77;;
13335;SDS011;6737;51.480;11.962;2022-12-18T02:39:50;46.40;;;24.83;;
13335;SDS011;6737;51.480;11.962;2022-12-18T02:42:18;47.97;;;25.37;;
13335;SDS011;6737;51.480;11.962;2022-12-18T02:44:45;47.00;;;24.13;;
13335;SDS011;6737;51.480;11.962;2022-12-18T02:47:13;50.33;;;24.10;;
13335;SDS011;6737;51.480;11.962;2022-12-18T02:49:44;45.03;;;23.60;;
13335;SDS011;6737;51.480;11.962;2022-12-18T02:53:18;44.93;;;23.40;;
13335;SDS011;6737;51.480;11.962;2022-12-18T02:58:20;44.70;;;23.93;;
13335;SDS011;6737;51.480;11.962;2022-12-18T03:03:42;46.17;;;24.30;;
13335;SDS011;6737;51.480;11.962;2022-12-18T03:06:21;43.90;;;23.43;;
13335;SDS011;6737;51.480;11.962;2022-12-18T03:08:54;44.60;;;23.90;;
13335;SDS011;6737;51.480;11.962;2022-12-18T03:11:23;44.60;;;24.07;;
13335;SDS011;6737;51.480;11.962;2022-12-18T03:14:12;42.70;;;23.10;;
13335;SDS011;6737;51.480;11.962;2022-12-18T03:16:41;39.83;;;23.07;;
13335;SDS011;6737;51.480;11.962;2022-12-18T03:19:11;41.77;;;23.03;;
13335;SDS011;6737;51.480;11.962;2022-12-18T03:21:44;38.17;;;21.70;;
13335;SDS011;6737;51.480;11.962;2022-12-18T03:24:12;40.80;;;23.37;;
13335;SDS011;6737;51.480;11.962;2022-12-18T03:26:41;39.40;;;22.33;;
13335;SDS011;6737;51.480;11.962;2022-12-18T03:29:17;38.53;;;21.80;;
13335;SDS011;6737;51.480;11.962;2022-12-18T03:31:51;38.03;;;20.80;;
13335;SDS011;6737;51.480;11.962;2022-12-18T03:34:29;39.70;;;21.97;;
13335;SDS011;6737;51.480;11.962;2022-12-18T03:36:58;36.73;;;21.57;;
13335;SDS011;6737;51.480;11.962;2022-12-18T03:39:24;37.50;;;21.30;;
13335;SDS011;6737;51.480;11.962;2022-12-18T03:41:51;35.87;;;21.23;;
13335;SDS011;6737;51.480;11.962;2022-12-18T03:44:36;35.47;;;20.73;;
13335;SDS011;6737;51.480;11.962;2022-12-18T03:47:32;34.60;;;20.80;;
13335;SDS011;6737;51.480;11.962;2022-12-18T03:50:12;37.73;;;21.60;;
13335;SDS011;6737;51.480;11.962;2022-12-18T03:52:49;37.30;;;20.67;;
13335;SDS011;6737;51.480;11.962;2022-12-18T03:55:22;42.03;;;23.90;;
13335;SDS011;6737;51.480;11.962;2022-12-18T03:57:52;42.10;;;23.60;;
13335;SDS011;6737;51.480;11.962;2022-12-18T04:00:19;46.47;;;25.37;;
13335;SDS011;6737;51.480;11.962;2022-12-18T04:02:47;46.83;;;25.33;;
13335;SDS011;6737;51.480;11.962;2022-12-18T04:05:17;42.20;;;24.87;;
13335;SDS011;6737;51.480;11.962;2022-12-18T04:07:47;43.67;;;25.03;;
13335;SDS011;6737;51.480;11.962;2022-12-18T04:10:17;43.80;;;24.93;;
13335;SDS011;6737;51.480;11.962;2022-12-18T04:12:44;41.27;;;24.50;;
13335;SDS011;6737;51.480;11.962;2022-12-18T04:15:10;40.80;;;23.97;;
13335;SDS011;6737;51.480;11.962;2022-12-18T04:17:36;42.80;;;25.50;;
13335;SDS011;6737;51.480;11.962;2022-12-18T04:20:03;43.47;;;24.57;;
13335;SDS011;6737;51.480;11.962;2022-12-18T04:22:29;46.50;;;25.57;;
13335;SDS011;6737;51.480;11.962;2022-12-18T04:24:55;42.67;;;25.40;;
13335;SDS011;6737;51.480;11.962;2022-12-18T04:27:21;45.50;;;25.37;;
13335;SDS011;6737;51.480;11.962;2022-12-18T04:29:47;42.63;;;25.63;;
13335;SDS011;6737;51.480;11.962;2022-12-18T04:32:13;45.87;;;27.00;;
13335;SDS011;6737;51.480;11.962;2022-12-18T04:34:38;46.90;;;25.87;;
13335;SDS011;6737;51.480;11.962;2022-12-18T04:37:04;43.63;;;26.17;;
13335;SDS011;6737;51.480;11.962;2022-12-18T04:39:30;43.67;;;26.43;;
13335;SDS011;6737;51.480;11.962;2022-12-18T04:41:56;43.80;;;26.93;;
13335;SDS011;6737;51.480;11.962;2022-12-18T04:44:21;46.40;;;28.00;;
13335;SDS011;6737;51.480;11.962;2022-12-18T04:46:47;48.33;;;26.47;;
13335;SDS011;6737;51.480;11.962;2022-12-18T04:49:13;48.17;;;26.23;;
13335;SDS011;6737;51.480;11.962;2022-12-18T04:51:39;45.70;;;24.87;;
13335;SDS011;6737;51.480;11.962;2022-12-18T04:54:05;49.43;;;26.37;;
13335;SDS011;6737;51.480;11.962;2022-12-18T04:56:31;44.77;;;25.33;;
13335;SDS011;6737;51.480;11.962;2022-12-18T04:58:57;47.13;;;23.53;;
13335;SDS011;6737;51.480;11.962;2022-12-18T05:01:23;49.13;;;23.97;;
13335;SDS011;6737;51.480;11.962;2022-12-18T05:03:48;43.80;;;22.60;;
13335;SDS011;6737;51.480;11.962;2022-12-18T05:06:16;42.70;;;23.37;;
13335;SDS011;6737;51.480;11.962;2022-12-18T05:08:42;41.43;;;22.30;;
13335;SDS011;6737;51.480;11.962;2022-12-18T05:11:09;43.97;;;22.70;;
13335;SDS011;6737;51.480;11.962;2022-12-18T05:13:37;45.53;;;22.67;;
13335;SDS011;6737;51.480;11.962;2022-12-18T05:16:03;38.60;;;21.97;;
13335;SDS011;6737;51.480;11.962;2022-12-18T05:18:29;40.47;;;22.47;;
13335;SDS011;6737;51.480;11.962;2022-12-18T05:20:56;44.23;;;22.97;;
13335;SDS011;6737;51.480;11.962;2022-12-18T05:23:22;41.17;;;22.23;;
13335;SDS011;6737;51.480;11.962;2022-12-18T05:25:55;41.33;;;21.73;;
13335;SDS011;6737;51.480;11.962;2022-12-18T05:28:27;36.27;;;20.87;;
13335;SDS011;6737;51.480;11.962;2022-12-18T05:30:55;39.17;;;21.80;;
13335;SDS011;6737;51.480;11.962;2022-12-18T05:33:23;41.47;;;21.40;;
13335;SDS011;6737;51.480;11.962;2022-12-18T05:35:50;41.13;;;21.50;;
13335;SDS011;6737;51.480;11.962;2022-12-18T05:38:17;40.10;;;21.10;;
13335;SDS011;6737;51.480;11.962;2022-12-18T05:40:43;39.40;;;20.73;;
13335;SDS011;6737;51.480;11.962;2022-12-18T05:43:09;39.73;;;20.90;;
13335;SDS011;6737;51.480;11.962;2022-12-18T05:45:39;41.70;;;21.77;;
13335;SDS011;6737;51.480;11.962;2022-12-18T05:48:05;39.37;;;20.83;;
13335;SDS011;6737;51.480;11.962;2022-12-18T05:50:35;39.63;;;20.27;;
13335;SDS011;6737;51.480;11.962;2022-12-18T05:53:02;39.53;;;20.83;;
13335;SDS011;6737;51.480;11.962;2022-12-18T05:55:29;43.43;;;21.13;;
13335;SDS011;6737;51.480;11.962;2022-12-18T05:57:58;43.93;;;21.37;;
13335;SDS011;6737;51.480;11.962;2022-12-18T06:00:24;36.80;;;19.57;;
13335;SDS011;6737;51.480;11.962;2022-12-18T06:02:49;40.50;;;19.57;;
13335;SDS011;6737;51.480;11.962;2022-12-18T06:05:15;39.60;;;21.77;;
13335;SDS011;6737;51.480;11.962;2022-12-18T06:07:41;41.23;;;21.83;;
13335;SDS011;6737;51.480;11.962;2022-12-18T06:10:07;40.30;;;21.17;;
13335;SDS011;6737;51.480;11.962;2022-12-18T06:12:32;41.90;;;21.07;;
13335;SDS011;6737;51.480;11.962;2022-12-18T06:14:59;39.83;;;20.90;;
13335;SDS011;6737;51.480;11.962;2022-12-18T06:17:29;42.63;;;20.83;;
13335;SDS011;6737;51.480;11.962;2022-12-18T06:19:55;42.23;;;21.57;;
13335;SDS011;6737;51.480;11.962;2022-12-18T06:22:21;37.37;;;20.47;;
13335;SDS011;6737;51.480;11.962;2022-12-18T06:24:47;35.77;;;20.13;;
13335;SDS011;6737;51.480;11.962;2022-12-18T06:27:13;39.47;;;20.37;;
13335;SDS011;6737;51.480;11.962;2022-12-18T06:29:39;34.93;;;20.67;;
13335;SDS011;6737;51.480;11.962;2022-12-18T06:32:05;33.87;;;19.40;;
13335;SDS011;6737;51.480;11.962;2022-12-18T06:34:31;39.10;;;20.10;;
13335;SDS011;6737;51.480;11.962;2022-12-18T06:36:57;35.17;;;20.20;;
13335;SDS011;6737;51.480;11.962;2022-12-18T06:39:23;35.33;;;19.00;;
13335;SDS011;6737;51.480;11.962;2022-12-18T06:41:49;33.47;;;18.20;;
13335;SDS011;6737;51.480;11.962;2022-12-18T06:44:15;36.50;;;19.07;;
13335;SDS011;6737;51.480;11.962;2022-12-18T06:46:40;34.07;;;19.80;;
13335;SDS011;6737;51.480;11.962;2022-12-18T06:49:06;36.40;;;20.20;;
13335;SDS011;6737;51.480;11.962;2022-12-18T06:51:34;35.43;;;19.50;;
13335;SDS011;6737;51.480;11.962;2022-12-18T06:54:00;36.50;;;19.63;;
13335;SDS011;6737;51.480;11.962;2022-12-18T06:56:26;30.80;;;19.27;;
13335;SDS011;6737;51.480;11.962;2022-12-18T06:58:53;30.33;;;18.60;;
13335;SDS011;6737;51.480;11.962;2022-12-18T07:01:18;33.17;;;18.53;;
13335;SDS011;6737;51.480;11.962;2022-12-18T07:03:44;33.13;;;18.30;;
13335;SDS011;6737;51.480;11.962;2022-12-18T07:06:17;34.93;;;19.10;;
13335;SDS011;6737;51.480;11.962;2022-12-18T07:08:45;32.77;;;18.80;;
13335;SDS011;6737;51.480;11.962;2022-12-18T07:11:12;32.37;;;18.03;;
13335;SDS011;6737;51.480;11.962;2022-12-18T07:13:38;30.43;;;17.60;;
13335;SDS011;6737;51.480;11.962;2022-12-18T07:16:37;30.07;;;18.10;;
13335;SDS011;6737;51.480;11.962;2022-12-18T07:18:55;31.30;;;18.23;;
13335;SDS011;6737;51.480;11.962;2022-12-18T07:21:22;29.37;;;16.80;;
13335;SDS011;6737;51.480;11.962;2022-12-18T07:23:49;27.70;;;16.37;;
13335;SDS011;6737;51.480;11.962;2022-12-18T07:26:15;28.97;;;16.47;;
13335;SDS011;6737;51.480;11.962;2022-12-18T07:28:42;29.13;;;16.53;;
13335;SDS011;6737;51.480;11.962;2022-12-18T07:31:12;25.40;;;15.87;;
13335;SDS011;6737;51.480;11.962;2022-12-18T07:33:46;27.30;;;16.13;;
13335;SDS011;6737;51.480;11.962;2022-12-18T07:36:12;26.33;;;15.37;;
13335;SDS011;6737;51.480;11.962;2022-12-18T07:38:38;27.00;;;16.07;;
13335;SDS011;6737;51.480;11.962;2022-12-18T07:41:09;25.97;;;15.47;;
13335;SDS011;6737;51.480;11.962;2022-12-18T07:43:36;26.83;;;15.27;;
13335;SDS011;6737;51.480;11.962;2022-12-18T07:46:03;28.07;;;15.57;;
13335;SDS011;6737;51.480;11.962;2022-12-18T07:48:29;22.83;;;14.70;;
13335;SDS011;6737;51.480;11.962;2022-12-18T07:51:02;26.23;;;15.27;;
13335;SDS011;6737;51.480;11.962;2022-12-18T07:53:29;27.67;;;16.63;;
13335;SDS011;6737;51.480;11.962;2022-12-18T07:55:56;27.77;;;15.93;;
13335;SDS011;6737;51.480;11.962;2022-12-18T07:58:23;27.50;;;16.20;;
13335;SDS011;6737;51.480;11.962;2022-12-18T08:00:49;26.77;;;15.47;;
13335;SDS011;6737;51.480;11.962;2022-12-18T08:03:14;27.27;;;16.17;;
13335;SDS011;6737;51.480;11.962;2022-12-18T08:05:40;28.37;;;14.63;;
13335;SDS011;6737;51.480;11.962;2022-12-18T08:08:06;29.70;;;15.83;;
13335;SDS011;6737;51.480;11.962;2022-12-18T08:10:31;27.63;;;15.73;;
13335;SDS011;6737;51.480;11.962;2022-12-18T08:12:57;27.70;;;15.90;;
13335;SDS011;6737;51.480;11.962;2022-12-18T08:15:23;26.33;;;15.00;;
13335;SDS011;6737;51.480;11.962;2022-12-18T08:17:48;26.00;;;15.30;;
13335;SDS011;6737;51.480;11.962;2022-12-18T08:20:14;27.67;;;16.73;;
13335;SDS011;6737;51.480;11.962;2022-12-18T08:22:41;27.97;;;15.70;;
13335;SDS011;6737;51.480;11.962;2022-12-18T08:25:07;26.87;;;15.93;;
13335;SDS011;6737;51.480;11.962;2022-12-18T08:27:33;29.33;;;16.90;;
13335;SDS011;6737;51.480;11.962;2022-12-18T08:29:58;26.83;;;16.40;;
13335;SDS011;6737;51.480;11.962;2022-12-18T08:32:25;26.33;;;15.83;;
13335;SDS011;6737;51.480;11.962;2022-12-18T08:34:51;27.67;;;16.37;;
13335;SDS011;6737;51.480;11.962;2022-12-18T08:37:17;24.47;;;15.93;;
13335;SDS011;6737;51.480;11.962;2022-12-18T08:39:43;29.50;;;16.30;;
13335;SDS011;6737;51.480;11.962;2022-12-18T08:42:09;32.87;;;16.77;;
13335;SDS011;6737;51.480;11.962;2022-12-18T08:44:54;29.77;;;17.40;;
13335;SDS011;6737;51.480;11.962;2022-12-18T08:47:19;31.40;;;18.13;;
13335;SDS011;6737;51.480;11.962;2022-12-18T08:49:45;30.60;;;17.63;;
13335;SDS011;6737;51.480;11.962;2022-12-18T08:52:11;29.00;;;16.83;;
13335;SDS011;6737;51.480;11.962;2022-12-18T08:54:39;29.90;;;17.37;;
13335;SDS011;6737;51.480;11.962;2022-12-18T08:57:05;30.43;;;18.00;;
13335;SDS011;6737;51.480;11.962;2022-12-18T08:59:31;33.77;;;18.53;;
13335;SDS011;6737;51.480;11.962;2022-12-18T09:01:57;30.93;;;17.30;;
13335;SDS011;6737;51.480;11.962;2022-12-18T09:04:23;31.43;;;17.87;;
13335;SDS011;6737;51.480;11.962;2022-12-18T09:06:48;33.97;;;18.67;;
13335;SDS011;6737;51.480;11.962;2022-12-18T09:09:14;34.43;;;19.03;;
13335;SDS011;6737;51.480;11.962;2022-12-18T09:11:40;32.40;;;18.23;;
13335;SDS011;6737;51.480;11.962;2022-12-18T09:14:06;32.17;;;17.87;;
13335;SDS011;6737;51.480;11.962;2022-12-18T09:16:31;32.80;;;18.70;;
13335;SDS011;6737;51.480;11.962;2022-12-18T09:18:59;31.40;;;18.13;;
13335;SDS011;6737;51.480;11.962;2022-12-18T09:21:27;30.50;;;17.87;;
13335;SDS011;6737;51.480;11.962;2022-12-18T09:23:58;34.37;;;19.00;;
13335;SDS011;6737;51.480;11.962;2022-12-18T09:26:25;32.70;;;18.73;;
13335;SDS011;6737;51.480;11.962;2022-12-18T09:28:51;27.90;;;18.53;;
13335;SDS011;6737;51.480;11.962;2022-12-18T09:31:18;29.47;;;17.80;;
13335;SDS011;6737;51.480;11.962;2022-12-18T09:33:45;31.87;;;19.50;;
13335;SDS011;6737;51.480;11.962;2022-12-18T09:36:11;29.87;;;18.53;;
13335;SDS011;6737;51.480;11.962;2022-12-18T09:38:39;30.27;;;19.23;;
13335;SDS011;6737;51.480;11.962;2022-12-18T09:41:06;30.30;;;19.27;;
13335;SDS011;6737;51.480;11.962;2022-12-18T09:44:03;30.17;;;18.87;;
13335;SDS011;6737;51.480;11.962;2022-12-18T09:46:38;29.57;;;19.30;;
13335;SDS011;6737;51.480;11.962;2022-12-18T09:49:13;33.23;;;20.43;;
13335;SDS011;6737;51.480;11.962;2022-12-18T09:54:14;31.40;;;19.97;;
13335;SDS011;6737;51.480;11.962;2022-12-18T09:56:45;33.97;;;21.67;;
13335;SDS011;6737;51.480;11.962;2022-12-18T09:59:22;38.93;;;20.77;;
13335;SDS011;6737;51.480;11.962;2022-12-18T10:01:50;30.80;;;19.70;;
13335;SDS011;6737;51.480;11.962;2022-12-18T10:04:16;29.73;;;18.77;;
13335;SDS011;6737;51.480;11.962;2022-12-18T10:06:44;31.10;;;18.87;;
13335;SDS011;6737;51.480;11.962;2022-12-18T10:23:04;18.20;;;11.70;;
13335;SDS011;6737;51.480;11.962;2022-12-18T10:25:55;18.10;;;11.37;;
13335;SDS011;6737;51.480;11.962;2022-12-18T10:28:30;18.87;;;11.27;;
13335;SDS011;6737;51.480;11.962;2022-12-18T10:30:56;17.33;;;10.80;;
13335;SDS011;6737;51.480;11.962;2022-12-18T10:33:27;16.63;;;10.03;;
13335;SDS011;6737;51.480;11.962;2022-12-18T10:35:54;16.00;;;9.63;;
13335;SDS011;6737;51.480;11.962;2022-12-18T10:38:22;15.67;;;10.30;;
13335;SDS011;6737;51.480;11.962;2022-12-18T10:40:57;13.93;;;9.70;;
13335;SDS011;6737;51.480;11.962;2022-12-18T10:48:26;17.33;;;9.87;;
13335;SDS011;6737;51.480;11.962;2022-12-18T10:50:53;25.17;;;13.70;;
13335;SDS011;6737;51.480;11.962;2022-12-18T10:53:20;119.27;;;47.90;;
13335;SDS011;6737;51.480;11.962;2022-12-18T10:55:49;67.57;;;29.43;;
13335;SDS011;6737;51.480;11.962;2022-12-18T10:58:20;70.50;;;32.10;;
13335;SDS011;6737;51.480;11.962;2022-12-18T11:06:25;55.20;;;26.63;;
13335;SDS011;6737;51.480;11.962;2022-12-18T11:08:58;32.43;;;17.90;;
13335;SDS011;6737;51.480;11.962;2022-12-18T11:11:48;56.83;;;27.17;;
13335;SDS011;6737;51.480;11.962;2022-12-18T11:14:30;16.20;;;9.20;;
13335;SDS011;6737;51.480;11.962;2022-12-18T11:16:59;13.73;;;7.80;;
13335;SDS011;6737;51.480;11.962;2022-12-18T11:21:51;51.43;;;23.07;;
13335;SDS011;6737;51.480;11.962;2022-12-18T11:24:22;52.03;;;23.60;;
13335;SDS011;6737;51.480;11.962;2022-12-18T11:27:01;111.83;;;44.80;;
13335;SDS011;6737;51.480;11.962;2022-12-18T11:29:40;75.97;;;34.47;;
13335;SDS011;6737;51.480;11.962;2022-12-18T11:34:47;15.00;;;7.90;;
13335;SDS011;6737;51.480;11.962;2022-12-18T11:37:17;15.17;;;8.33;;
13335;SDS011;6737;51.480;11.962;2022-12-18T11:39:47;12.27;;;8.27;;
13335;SDS011;6737;51.480;11.962;2022-12-18T11:42:25;12.93;;;8.17;;
13335;SDS011;6737;51.480;11.962;2022-12-18T11:50:14;14.07;;;8.00;;
13335;SDS011;6737;51.480;11.962;2022-12-18T11:52:43;14.53;;;8.40;;
13335;SDS011;6737;51.480;11.962;2022-12-18T11:55:16;11.63;;;7.33;;
13335;SDS011;6737;51.480;11.962;2022-12-18T11:58:01;13.00;;;7.80;;
13335;SDS011;6737;51.480;11.962;2022-12-18T12:00:49;12.83;;;7.53;;
13335;SDS011;6737;51.480;11.962;2022-12-18T12:03:39;14.17;;;7.73;;
13335;SDS011;6737;51.480;11.962;2022-12-18T12:17:12;12.87;;;6.87;;
13335;SDS011;6737;51.480;11.962;2022-12-18T12:20:08;12.60;;;6.97;;
13335;SDS011;6737;51.480;11.962;2022-12-18T12:22:42;10.27;;;7.00;;
13335;SDS011;6737;51.480;11.962;2022-12-18T12:38:51;11.67;;;7.07;;
13335;SDS011;6737;51.480;11.962;2022-12-18T12:41:23;9.27;;;6.33;;
13335;SDS011;6737;51.480;11.962;2022-12-18T12:44:25;10.50;;;6.33;;
13335;SDS011;6737;51.480;11.962;2022-12-18T12:46:55;10.07;;;6.50;;
13335;SDS011;6737;51.480;11.962;2022-12-18T12:49:25;10.97;;;6.33;;
13335;SDS011;6737;51.480;11.962;2022-12-18T12:52:03;9.67;;;6.53;;
13335;SDS011;6737;51.480;11.962;2022-12-18T12:54:32;12.60;;;6.27;;
13335;SDS011;6737;51.480;11.962;2022-12-18T12:57:10;12.13;;;7.10;;
13335;SDS011;6737;51.480;11.962;2022-12-18T12:59:58;10.00;;;6.70;;
13335;SDS011;6737;51.480;11.962;2022-12-18T13:02:34;10.90;;;7.17;;
13335;SDS011;6737;51.480;11.962;2022-12-18T13:07:58;8.73;;;6.27;;
13335;SDS011;6737;51.480;11.962;2022-12-18T13:15:39;9.13;;;6.57;;
13335;SDS011;6737;51.480;11.962;2022-12-18T13:18:23;9.73;;;7.00;;
13335;SDS011;6737;51.480;11.962;2022-12-18T13:25:56;9.40;;;6.50;;
13335;SDS011;6737;51.480;11.962;2022-12-18T13:31:06;9.27;;;6.57;;
13335;SDS011;6737;51.480;11.962;2022-12-18T13:33:39;10.67;;;7.00;;
13335;SDS011;6737;51.480;11.962;2022-12-18T13:36:15;10.23;;;6.60;;
13335;SDS011;6737;51.480;11.962;2022-12-18T13:38:41;8.80;;;6.00;;
13335;SDS011;6737;51.480;11.962;2022-12-18T13:43:46;10.03;;;6.53;;
13335;SDS011;6737;51.480;11.962;2022-12-18T13:46:28;14.13;;;7.13;;
13335;SDS011;6737;51.480;11.962;2022-12-18T13:51:48;11.47;;;7.80;;
13335;SDS011;6737;51.480;11.962;2022-12-18T13:54:19;15.57;;;9.43;;
13335;SDS011;6737;51.480;11.962;2022-12-18T13:57:00;12.87;;;8.47;;
13335;SDS011;6737;51.480;11.962;2022-12-18T13:59:39;15.00;;;8.93;;
13335;SDS011;6737;51.480;11.962;2022-12-18T14:02:11;12.93;;;8.80;;
13335;SDS011;6737;51.480;11.962;2022-12-18T14:04:39;13.07;;;8.27;;
13335;SDS011;6737;51.480;11.962;2022-12-18T14:07:06;13.83;;;8.93;;
13335;SDS011;6737;51.480;11.962;2022-12-18T14:09:40;17.13;;;9.83;;
13335;SDS011;6737;51.480;11.962;2022-12-18T14:12:13;14.23;;;9.30;;
13335;SDS011;6737;51.480;11.962;2022-12-18T14:15:00;14.93;;;9.63;;
13335;SDS011;6737;51.480;11.962;2022-12-18T14:17:27;17.40;;;10.03;;
13335;SDS011;6737;51.480;11.962;2022-12-18T14:19:53;15.37;;;10.00;;
13335;SDS011;6737;51.480;11.962;2022-12-18T14:22:23;15.57;;;10.23;;
13335;SDS011;6737;51.480;11.962;2022-12-18T14:27:41;15.70;;;10.03;;
13335;SDS011;6737;51.480;11.962;2022-12-18T14:33:01;15.33;;;9.77;;
13335;SDS011;6737;51.480;11.962;2022-12-18T14:35:28;18.73;;;11.10;;
13335;SDS011;6737;51.480;11.962;2022-12-18T14:37:53;15.40;;;10.60;;
13335;SDS011;6737;51.480;11.962;2022-12-18T14:40:33;17.13;;;10.30;;
13335;SDS011;6737;51.480;11.962;2022-12-18T14:42:59;17.03;;;11.23;;
13335;SDS011;6737;51.480;11.962;2022-12-18T14:45:38;18.10;;;11.10;;
13335;SDS011;6737;51.480;11.962;2022-12-18T14:48:16;18.07;;;10.73;;
13335;SDS011;6737;51.480;11.962;2022-12-18T14:51:00;15.33;;;9.53;;
13335;SDS011;6737;51.480;11.962;2022-12-18T14:53:33;16.27;;;9.70;;
13335;SDS011;6737;51.480;11.962;2022-12-18T14:56:42;16.57;;;10.20;;
13335;SDS011;6737;51.480;11.962;2022-12-18T14:59:01;17.87;;;11.13;;
13335;SDS011;6737;51.480;11.962;2022-12-18T15:01:33;15.77;;;9.80;;
13335;SDS011;6737;51.480;11.962;2022-12-18T15:04:02;16.73;;;10.57;;
13335;SDS011;6737;51.480;11.962;2022-12-18T15:06:33;16.70;;;10.43;;
13335;SDS011;6737;51.480;11.962;2022-12-18T15:09:03;28.77;;;14.70;;
13335;SDS011;6737;51.480;11.962;2022-12-18T15:11:46;35.70;;;16.57;;
13335;SDS011;6737;51.480;11.962;2022-12-18T15:16:56;28.47;;;13.83;;
13335;SDS011;6737;51.480;11.962;2022-12-18T15:19:31;20.53;;;11.47;;
13335;SDS011;6737;51.480;11.962;2022-12-18T15:24:52;23.70;;;13.77;;
13335;SDS011;6737;51.480;11.962;2022-12-18T15:27:23;19.93;;;11.57;;
13335;SDS011;6737;51.480;11.962;2022-12-18T15:30:00;18.07;;;11.50;;
13335;SDS011;6737;51.480;11.962;2022-12-18T15:32:35;18.03;;;11.03;;
13335;SDS011;6737;51.480;11.962;2022-12-18T15:35:08;18.40;;;11.93;;
13335;SDS011;6737;51.480;11.962;2022-12-18T15:37:41;19.90;;;12.27;;
13335;SDS011;6737;51.480;11.962;2022-12-18T15:40:08;24.27;;;13.43;;
13335;SDS011;6737;51.480;11.962;2022-12-18T15:42:41;18.50;;;11.23;;
13335;SDS011;6737;51.480;11.962;2022-12-18T15:45:26;19.47;;;11.33;;
13335;SDS011;6737;51.480;11.962;2022-12-18T15:47:53;20.77;;;12.50;;
13335;SDS011;6737;51.480;11.962;2022-12-18T15:50:19;22.17;;;13.13;;
13335;SDS011;6737;51.480;11.962;2022-12-18T15:52:45;23.47;;;13.50;;
13335;SDS011;6737;51.480;11.962;2022-12-18T15:55:15;20.07;;;12.53;;
13335;SDS011;6737;51.480;11.962;2022-12-18T15:58:02;20.87;;;12.60;;
13335;SDS011;6737;51.480;11.962;2022-12-18T16:00:29;21.57;;;12.90;;
13335;SDS011;6737;51.480;11.962;2022-12-18T16:02:55;20.87;;;12.40;;
13335;SDS011;6737;51.480;11.962;2022-12-18T16:05:21;20.83;;;12.80;;
13335;SDS011;6737;51.480;11.962;2022-12-18T16:07:48;20.77;;;12.63;;
13335;SDS011;6737;51.480;11.962;2022-12-18T16:10:14;22.03;;;12.10;;
13335;SDS011;6737;51.480;11.962;2022-12-18T16:12:40;20.23;;;12.67;;
13335;SDS011;6737;51.480;11.962;2022-12-18T16:15:07;23.50;;;12.50;;
13335;SDS011;6737;51.480;11.962;2022-12-18T16:17:35;24.23;;;13.50;;
13335;SDS011;6737;51.480;11.962;2022-12-18T16:20:01;19.73;;;13.23;;
13335;SDS011;6737;51.480;11.962;2022-12-18T16:22:28;22.17;;;13.73;;
13335;SDS011;6737;51.480;11.962;2022-12-18T16:24:54;22.77;;;13.37;;
13335;SDS011;6737;51.480;11.962;2022-12-18T16:27:23;21.20;;;13.60;;
13335;SDS011;6737;51.480;11.962;2022-12-18T16:29:49;24.23;;;13.67;;
13335;SDS011;6737;51.480;11.962;2022-12-18T16:32:16;22.30;;;12.67;;
13335;SDS011;6737;51.480;11.962;2022-12-18T16:34:44;25.30;;;15.07;;
13335;SDS011;6737;51.480;11.962;2022-12-18T16:37:11;22.37;;;14.40;;